createdAt,value
2022-08-05T00:02:07.277Z,29.20
2022-08-05T00:04:55.794Z,29.20
2022-08-05T00:08:01.135Z,29.20
2022-08-05T00:10:46.989Z,29.20
2022-08-05T00:13:39.335Z,29.00
2022-08-05T00:16:35.397Z,29.10
2022-08-05T00:19:24.937Z,29.10
2022-08-05T00:22:19.429Z,28.90
2022-08-05T00:25:08.413Z,28.70
2022-08-05T00:27:58.253Z,28.60
2022-08-05T00:30:44.270Z,28.60
2022-08-05T00:34:54.617Z,28.60
2022-08-05T00:37:11.022Z,28.60
2022-08-05T00:39:57.376Z,28.60
2022-08-05T00:42:44.455Z,28.60
2022-08-05T00:45:39.115Z,28.50
2022-08-05T00:48:31.595Z,28.60
2022-08-05T00:51:51.992Z,28.60
2022-08-05T00:54:23.780Z,28.50
2022-08-05T00:57:14.105Z,28.40
2022-08-05T00:59:59.699Z,28.40
2022-08-05T01:02:45.644Z,28.50
2022-08-05T01:05:31.556Z,28.60
2022-08-05T01:08:42.701Z,28.60
2022-08-05T01:11:33.661Z,28.60
2022-08-05T01:14:34.957Z,28.60
2022-08-05T01:17:39.921Z,28.60
2022-08-05T01:20:50.571Z,28.60
2022-08-05T01:23:45.917Z,28.60
2022-08-05T01:27:15.033Z,28.60
2022-08-05T01:30:18.646Z,28.50
2022-08-05T01:33:10.867Z,28.40
2022-08-05T01:36:07.346Z,28.50
2022-08-05T01:39:01.293Z,28.60
2022-08-05T01:41:49.150Z,28.50
2022-08-05T01:44:37.427Z,28.40
2022-08-05T01:47:32.522Z,28.20
2022-08-05T01:50:35.116Z,28.10
2022-08-05T01:53:54.538Z,27.90
2022-08-05T01:58:12.249Z,27.80
2022-08-05T01:59:40.715Z,27.80
2022-08-05T02:02:37.231Z,27.80
2022-08-05T02:05:38.434Z,27.90
2022-08-05T02:08:31.118Z,27.90
2022-08-05T02:11:23.588Z,27.90
2022-08-05T02:14:15.065Z,28.00
2022-08-05T02:17:16.774Z,28.10
2022-08-05T02:20:07.411Z,28.20
2022-08-05T02:23:03.110Z,28.20
2022-08-05T02:25:52.541Z,28.20
2022-08-05T02:28:45.780Z,28.10
2022-08-05T02:31:35.583Z,27.90
2022-08-05T02:34:22.831Z,27.90
2022-08-05T02:37:10.282Z,28.00
2022-08-05T02:39:56.261Z,28.00
2022-08-05T02:42:43.534Z,27.90
2022-08-05T02:45:52.930Z,27.80
2022-08-05T02:48:39.944Z,27.80
2022-08-05T02:52:03.190Z,27.80
2022-08-05T02:54:37.645Z,27.80
2022-08-05T02:58:09.414Z,27.80
2022-08-05T03:00:37.405Z,27.80
2022-08-05T03:03:26.524Z,27.60
2022-08-05T03:06:54.923Z,28.50
2022-08-05T03:09:27.150Z,27.30
2022-08-05T03:12:34.635Z,27.10
2022-08-05T03:15:21.468Z,27.10
2022-08-05T03:18:09.287Z,27.20
2022-08-05T03:20:54.909Z,27.10
2022-08-05T03:23:42.818Z,26.90
2022-08-05T03:26:32.710Z,26.80
2022-08-05T03:29:18.660Z,26.70
2022-08-05T03:32:05.995Z,26.60
2022-08-05T03:34:54.714Z,26.60
2022-08-05T03:37:46.417Z,26.50
2022-08-05T03:40:32.874Z,26.70
2022-08-05T03:44:10.016Z,26.80
2022-08-05T03:46:29.751Z,26.80
2022-08-05T03:49:15.809Z,26.70
2022-08-05T03:52:37.823Z,26.40
2022-08-05T03:56:05.628Z,25.90
2022-08-05T03:58:29.175Z,25.90
2022-08-05T04:01:20.925Z,26.40
2022-08-05T04:04:10.381Z,26.70
2022-08-05T04:06:58.034Z,26.80
2022-08-05T04:09:53.752Z,26.90
2022-08-05T04:15:24.727Z,26.60
2022-08-05T04:18:12.730Z,26.70
2022-08-05T04:21:11.068Z,26.60
2022-08-05T04:24:06.487Z,26.40
2022-08-05T04:26:55.070Z,26.70
2022-08-05T04:29:44.225Z,26.70
2022-08-05T04:32:33.094Z,26.80
2022-08-05T04:35:19.933Z,26.90
2022-08-05T04:38:06.614Z,26.90
2022-08-05T04:40:52.484Z,26.90
2022-08-05T04:43:46.671Z,26.80
2022-08-05T04:46:51.134Z,26.60
2022-08-05T04:50:01.737Z,26.30
2022-08-05T04:52:50.335Z,26.50
2022-08-05T04:56:14.550Z,26.60
2022-08-05T04:58:43.794Z,26.60
2022-08-05T05:02:06.234Z,26.60
2022-08-05T05:04:35.445Z,26.60
2022-08-05T05:07:29.205Z,26.60
2022-08-05T05:10:15.693Z,27.80
2022-08-05T05:13:04.249Z,26.70
2022-08-05T05:15:56.689Z,26.90
2022-08-05T05:18:57.089Z,26.80
2022-08-05T05:21:51.119Z,26.80
2022-08-05T05:24:58.659Z,26.80
2022-08-05T05:27:48.568Z,27.00
2022-08-05T05:30:40.085Z,27.20
2022-08-05T05:33:26.245Z,26.20
2022-08-05T05:36:13.410Z,27.20
2022-08-05T05:39:00.751Z,27.00
2022-08-05T05:41:54.735Z,26.90
2022-08-05T05:44:42.920Z,27.20
2022-08-05T05:48:06.178Z,27.30
2022-08-05T05:50:43.958Z,27.40
2022-08-05T05:53:30.646Z,27.70
2022-08-05T05:56:36.109Z,27.90
2022-08-05T05:59:21.794Z,27.90
2022-08-05T06:02:08.514Z,28.20
2022-08-05T06:04:55.549Z,28.20
2022-08-05T06:07:57.864Z,28.30
2022-08-05T06:10:52.406Z,28.80
2022-08-05T06:13:40.570Z,29.20
2022-08-05T06:16:37.354Z,29.00
2022-08-05T06:19:33.989Z,29.30
2022-08-05T06:22:26.977Z,29.30
2022-08-05T06:25:50.537Z,29.30
2022-08-05T06:28:20.923Z,29.50
2022-08-05T06:31:10.919Z,29.50
2022-08-05T06:34:07.194Z,29.50
2022-08-05T06:36:56.925Z,29.60
2022-08-05T06:39:44.056Z,29.90
2022-08-05T06:42:30.361Z,30.00
2022-08-05T06:45:20.694Z,30.00
2022-08-05T06:48:36.367Z,29.90
2022-08-05T06:51:23.866Z,30.10
2022-08-05T06:54:18.905Z,30.40
2022-08-05T06:57:47.209Z,30.40
2022-08-05T07:00:12.098Z,30.40
2022-08-05T07:02:58.035Z,30.50
2022-08-05T07:05:43.851Z,30.90
2022-08-05T07:08:32.441Z,31.30
2022-08-05T07:11:22.251Z,31.10
2022-08-05T07:14:32.156Z,31.10
2022-08-05T07:18:08.924Z,30.90
2022-08-05T07:20:33.792Z,31.10
2022-08-05T07:23:26.170Z,31.60
2022-08-05T07:26:13.965Z,31.40
2022-08-05T07:28:59.972Z,31.50
2022-08-05T07:31:54.945Z,31.60
2022-08-05T07:34:42.432Z,31.80
2022-08-05T07:37:35.907Z,31.70
2022-08-05T07:40:31.721Z,31.70
2022-08-05T07:43:20.673Z,31.90
2022-08-05T07:46:18.929Z,31.90
2022-08-05T07:49:11.079Z,32.00
2022-08-05T07:51:56.802Z,32.30
2022-08-05T07:54:49.102Z,31.80
2022-08-05T07:57:55.316Z,31.50
2022-08-05T08:00:41.643Z,31.90
2022-08-05T08:03:44.565Z,32.30
2022-08-05T08:06:31.086Z,32.30
2022-08-05T08:09:16.814Z,32.30
2022-08-05T08:12:16.529Z,32.60
2022-08-05T08:15:15.699Z,32.80
2022-08-05T08:18:02.933Z,32.40
2022-08-05T08:21:01.855Z,32.00
2022-08-05T08:24:03.842Z,32.60
2022-08-05T08:26:50.861Z,33.10
2022-08-05T08:30:04.550Z,33.10
2022-08-05T08:32:44.010Z,33.40
2022-08-05T08:35:34.799Z,33.70
2022-08-05T08:38:35.544Z,33.80
2022-08-05T08:41:52.326Z,33.70
2022-08-05T08:45:25.004Z,33.30
2022-08-05T08:48:05.528Z,32.80
2022-08-05T08:51:03.272Z,33.30
2022-08-05T08:53:54.039Z,34.90
2022-08-05T08:56:47.820Z,34.90
2022-08-05T08:59:35.585Z,35.70
2022-08-05T09:02:26.648Z,36.40
2022-08-05T09:05:17.775Z,37.40
2022-08-05T09:08:04.890Z,38.00
2022-08-05T09:10:51.980Z,39.00
2022-08-05T09:14:01.160Z,39.60
2022-08-05T09:16:49.009Z,40.90
2022-08-05T09:19:36.770Z,40.40
2022-08-05T09:23:05.298Z,39.70
2022-08-05T09:26:22.278Z,41.60
2022-08-05T09:29:09.065Z,39.80
2022-08-05T09:32:41.970Z,40.10
2022-08-05T09:35:26.621Z,40.50
2022-08-05T09:38:18.036Z,40.00
2022-08-05T09:41:12.618Z,41.10
2022-08-05T09:44:02.434Z,40.80
2022-08-05T09:46:53.445Z,39.80
2022-08-05T09:50:02.229Z,40.50
2022-08-05T09:52:57.774Z,40.50
2022-08-05T09:55:57.298Z,41.00
2022-08-05T09:59:00.195Z,40.60
2022-08-05T10:01:47.458Z,41.20
2022-08-05T10:04:39.518Z,41.00
2022-08-05T10:08:10.872Z,40.90
2022-08-05T10:10:54.223Z,41.10
2022-08-05T10:13:47.919Z,42.70
2022-08-05T10:16:41.729Z,43.10
2022-08-05T10:20:03.739Z,43.50
2022-08-05T10:22:50.932Z,41.30
2022-08-05T10:25:37.232Z,41.80
2022-08-05T10:28:29.336Z,43.00
2022-08-05T10:32:53.120Z,42.10
2022-08-05T10:34:25.945Z,43.30
2022-08-05T10:37:16.247Z,43.10
2022-08-05T10:40:18.085Z,43.20
2022-08-05T10:43:37.130Z,43.60
2022-08-05T10:46:24.681Z,43.10
2022-08-05T10:49:16.966Z,42.60
2022-08-05T10:52:04.991Z,40.10
2022-08-05T10:55:07.990Z,42.40
2022-08-05T10:58:11.211Z,43.10
2022-08-05T11:01:02.783Z,43.60
2022-08-05T11:04:22.104Z,44.90
2022-08-05T11:07:16.307Z,44.60
2022-08-05T11:10:03.645Z,43.20
2022-08-05T11:12:58.326Z,43.00
2022-08-05T11:16:00.687Z,39.80
2022-08-05T11:18:47.646Z,41.30
2022-08-05T11:21:49.043Z,41.70
2022-08-05T11:24:35.235Z,39.90
2022-08-05T11:27:51.098Z,41.30
2022-08-05T11:30:56.074Z,41.90
2022-08-05T11:33:51.936Z,43.00
2022-08-05T11:36:52.916Z,40.70
2022-08-05T11:39:55.545Z,39.40
2022-08-05T11:42:48.734Z,42.10
2022-08-05T11:46:29.877Z,43.90
2022-08-05T11:48:54.834Z,45.40
2022-08-05T11:51:49.376Z,44.80
2022-08-05T11:54:38.232Z,44.70
2022-08-05T11:58:08.222Z,46.70
2022-08-05T12:00:38.160Z,44.70
2022-08-05T12:03:29.265Z,44.50
2022-08-05T12:06:21.071Z,45.30
2022-08-05T12:09:07.158Z,41.90
2022-08-05T12:11:53.309Z,41.80
2022-08-05T12:14:42.408Z,42.90
2022-08-05T12:18:03.040Z,45.10
2022-08-05T12:20:41.669Z,44.30
2022-08-05T12:23:27.438Z,44.30
2022-08-05T12:26:15.035Z,45.70
2022-08-05T12:29:01.485Z,46.40
2022-08-05T12:32:02.012Z,44.70
2022-08-05T12:34:50.559Z,44.00
2022-08-05T12:37:36.029Z,43.00
2022-08-05T12:40:28.681Z,44.20
2022-08-05T12:43:20.772Z,45.60
2022-08-05T12:46:06.573Z,44.30
2022-08-05T12:49:12.916Z,43.00
2022-08-05T12:52:14.395Z,40.50
2022-08-05T12:55:25.154Z,40.90
2022-08-05T12:58:48.950Z,44.40
2022-08-05T13:02:01.665Z,46.00
2022-08-05T13:04:54.411Z,44.90
2022-08-05T13:08:00.115Z,46.00
2022-08-05T13:10:50.225Z,45.40
2022-08-05T13:14:04.786Z,43.50
2022-08-05T13:16:56.680Z,44.20
2022-08-05T13:19:57.622Z,43.30
2022-08-05T13:22:48.116Z,40.40
2022-08-05T13:25:58.841Z,39.50
2022-08-05T13:28:44.176Z,39.50
2022-08-05T13:31:33.796Z,37.90
2022-08-05T13:34:36.302Z,38.00
2022-08-05T13:37:34.497Z,37.90
2022-08-05T13:40:36.932Z,37.90
2022-08-05T13:43:44.396Z,37.40
2022-08-05T13:47:01.905Z,37.20
2022-08-05T13:49:37.836Z,37.20
2022-08-05T13:52:31.150Z,37.30
2022-08-05T13:55:41.467Z,37.80
2022-08-05T13:58:31.015Z,37.70
2022-08-05T14:01:17.177Z,37.80
2022-08-05T14:04:21.831Z,37.40
2022-08-05T14:07:25.823Z,37.70
2022-08-05T14:10:28.650Z,37.70
2022-08-05T14:13:17.390Z,37.10
2022-08-05T14:16:11.182Z,37.70
2022-08-05T14:18:57.195Z,37.50
2022-08-05T14:22:10.278Z,37.60
2022-08-05T14:24:54.892Z,37.80
2022-08-05T14:27:45.081Z,37.60
2022-08-05T14:30:33.449Z,37.60
2022-08-05T14:33:22.662Z,37.70
2022-08-05T14:36:08.988Z,38.10
2022-08-05T14:38:57.022Z,38.20
2022-08-05T14:42:02.448Z,38.20
2022-08-05T14:44:49.984Z,37.70
2022-08-05T14:48:03.339Z,37.70
2022-08-05T14:50:41.401Z,37.60
2022-08-05T14:53:29.942Z,38.20
2022-08-05T14:56:16.094Z,38.40
2022-08-05T14:59:08.473Z,38.50
2022-08-05T15:01:54.390Z,38.40
2022-08-05T15:04:39.937Z,37.80
2022-08-05T15:08:08.535Z,37.90
2022-08-05T15:10:36.461Z,38.10
2022-08-05T15:13:28.475Z,38.10
2022-08-05T15:16:28.443Z,37.90
2022-08-05T15:19:23.771Z,37.50
2022-08-05T15:22:09.827Z,37.10
2022-08-05T15:24:59.105Z,37.40
2022-08-05T15:27:52.116Z,37.30
2022-08-05T15:30:38.100Z,37.20
2022-08-05T15:33:56.678Z,37.30
2022-08-05T15:36:30.128Z,37.50
2022-08-05T15:41:01.188Z,37.10
2022-08-05T15:42:55.125Z,37.30
2022-08-05T15:45:38.603Z,37.50
2022-08-05T15:48:24.628Z,37.60
2022-08-05T15:51:10.246Z,37.70
2022-08-05T15:53:59.431Z,37.60
2022-08-05T15:56:46.724Z,37.60
2022-08-05T15:59:32.464Z,37.70
2022-08-05T16:02:19.854Z,37.50
2022-08-05T16:05:11.467Z,37.50
2022-08-05T16:07:57.284Z,37.40
2022-08-05T16:10:42.789Z,37.50
2022-08-05T16:13:34.493Z,37.50
2022-08-05T16:16:25.117Z,37.50
2022-08-05T16:19:12.053Z,37.40
2022-08-05T16:22:06.644Z,37.10
2022-08-05T16:24:56.295Z,37.00
2022-08-05T16:28:00.220Z,37.20
2022-08-05T16:30:50.430Z,37.30
2022-08-05T16:33:41.223Z,37.60
2022-08-05T16:36:27.905Z,37.50
2022-08-05T16:39:14.301Z,37.50
2022-08-05T16:42:13.718Z,37.50
2022-08-05T16:45:05.871Z,37.20
2022-08-05T16:48:10.343Z,37.20
2022-08-05T16:50:57.037Z,37.50
2022-08-05T16:54:05.933Z,37.80
2022-08-05T16:56:52.157Z,37.70
2022-08-05T16:59:49.583Z,37.80
2022-08-05T17:02:45.327Z,37.20
2022-08-05T17:05:31.838Z,37.20
2022-08-05T17:08:35.864Z,37.00
2022-08-05T17:11:25.435Z,36.90
2022-08-05T17:14:13.135Z,37.00
2022-08-05T17:17:17.483Z,37.00
2022-08-05T17:20:08.149Z,37.10
2022-08-05T17:23:00.396Z,36.90
2022-08-05T17:25:46.394Z,36.70
2022-08-05T17:28:31.944Z,36.70
2022-08-05T17:31:24.743Z,36.80
2022-08-05T17:34:30.274Z,37.00
2022-08-05T17:37:41.602Z,37.00
2022-08-05T17:40:25.254Z,36.80
2022-08-05T17:43:11.713Z,36.50
2022-08-05T17:45:57.946Z,36.20
2022-08-05T17:48:47.639Z,36.20
2022-08-05T17:51:40.440Z,36.20
2022-08-05T17:54:26.443Z,36.00
2022-08-05T17:57:12.490Z,35.90
2022-08-05T18:00:05.039Z,35.80
2022-08-05T18:02:54.452Z,35.80
2022-08-05T18:05:41.625Z,35.70
2022-08-05T18:08:27.970Z,35.60
2022-08-05T18:11:24.440Z,35.40
2022-08-05T18:14:20.583Z,35.10
2022-08-05T18:17:06.997Z,34.70
2022-08-05T18:20:14.108Z,34.50
2022-08-05T18:23:09.075Z,34.30
2022-08-05T18:25:57.548Z,34.10
2022-08-05T18:28:44.923Z,34.00
2022-08-05T18:31:35.431Z,33.90
2022-08-05T18:34:21.702Z,33.90
2022-08-05T18:37:12.653Z,33.90
2022-08-05T18:41:49.879Z,33.80
2022-08-05T18:43:16.447Z,33.80
2022-08-05T18:46:03.114Z,33.50
2022-08-05T18:48:52.248Z,33.40
2022-08-05T18:52:04.542Z,33.40
2022-08-05T18:54:54.441Z,33.50
2022-08-05T18:57:50.106Z,33.50
2022-08-05T19:00:38.856Z,33.50
2022-08-05T19:03:34.430Z,33.40
2022-08-05T19:06:34.093Z,33.30
2022-08-05T19:09:23.042Z,33.30
2022-08-05T19:12:10.713Z,33.40
2022-08-05T19:15:00.665Z,33.40
2022-08-05T19:18:08.784Z,33.30
2022-08-05T19:20:54.169Z,33.20
2022-08-05T19:24:07.299Z,33.10
2022-08-05T19:26:54.691Z,33.00
2022-08-05T19:29:41.570Z,33.00
2022-08-05T19:32:28.706Z,32.90
2022-08-05T19:35:15.573Z,32.90
2022-08-05T19:38:06.421Z,32.90
2022-08-05T19:40:54.701Z,32.90
2022-08-05T19:44:05.296Z,33.00
2022-08-05T19:46:50.274Z,33.00
2022-08-05T19:49:37.563Z,33.00
2022-08-05T19:52:31.411Z,33.00
2022-08-05T19:56:15.368Z,32.80
2022-08-05T19:58:29.211Z,32.90
2022-08-05T20:01:15.321Z,32.90
2022-08-05T20:04:03.606Z,32.90
2022-08-05T20:06:50.337Z,32.70
2022-08-05T20:09:54.709Z,32.60
2022-08-05T20:12:45.969Z,32.50
2022-08-05T20:15:51.687Z,32.70
2022-08-05T20:18:39.096Z,32.90
2022-08-05T20:21:25.762Z,32.60
2022-08-05T20:24:11.695Z,32.60
2022-08-05T20:27:01.618Z,32.70
2022-08-05T20:29:57.431Z,32.90
2022-08-05T20:32:45.335Z,32.80
2022-08-05T20:35:31.503Z,32.60
2022-08-05T20:38:27.318Z,32.80
2022-08-05T20:41:23.721Z,33.20
2022-08-05T20:44:18.758Z,32.80
2022-08-05T20:47:14.909Z,32.90
2022-08-05T20:50:01.999Z,33.00
2022-08-05T20:52:48.109Z,33.10
2022-08-05T20:56:07.205Z,32.90
2022-08-05T20:58:43.615Z,32.70
2022-08-05T21:01:38.267Z,32.90
2022-08-05T21:04:26.968Z,33.20
2022-08-05T21:07:14.002Z,33.30
2022-08-05T21:10:00.017Z,32.80
2022-08-05T21:13:08.225Z,32.70
2022-08-05T21:15:55.204Z,32.30
2022-08-05T21:18:42.940Z,31.30
2022-08-05T21:21:39.805Z,31.10
2022-08-05T21:24:32.401Z,30.70
2022-08-05T21:27:25.441Z,30.60
2022-08-05T21:30:17.675Z,30.80
2022-08-05T21:33:05.422Z,30.80
2022-08-05T21:35:59.003Z,30.90
2022-08-05T21:38:44.664Z,31.50
2022-08-05T21:41:34.356Z,31.30
2022-08-05T21:44:27.005Z,31.40
2022-08-05T21:47:17.617Z,31.50
2022-08-05T21:50:18.935Z,31.50
2022-08-05T21:53:17.545Z,31.50
2022-08-05T21:56:12.064Z,31.40
2022-08-05T21:59:07.918Z,31.10
2022-08-05T22:02:08.641Z,31.00
2022-08-05T22:04:58.280Z,31.00
2022-08-05T22:08:02.035Z,31.10
2022-08-05T22:10:48.594Z,31.20
2022-08-05T22:14:06.228Z,31.40
2022-08-05T22:16:51.841Z,31.30
2022-08-05T22:20:00.250Z,31.30
2022-08-05T22:23:16.603Z,31.50
2022-08-05T22:26:21.350Z,31.50
2022-08-05T22:29:07.067Z,31.50
2022-08-05T22:31:55.306Z,30.80
2022-08-05T22:34:46.254Z,31.00
2022-08-05T22:37:58.598Z,30.80
2022-08-05T22:40:38.064Z,30.60
2022-08-05T22:43:37.450Z,30.50
2022-08-05T22:46:25.779Z,30.20
2022-08-05T22:50:17.368Z,29.90
2022-08-05T22:52:30.364Z,29.80
2022-08-05T22:55:21.849Z,29.10
2022-08-05T22:58:11.754Z,28.70
2022-08-05T23:01:00.319Z,27.80
2022-08-05T23:03:58.283Z,27.10
2022-08-05T23:06:45.449Z,26.40
2022-08-05T23:09:53.391Z,26.20
2022-08-05T23:12:40.744Z,26.10
2022-08-05T23:15:35.207Z,26.30
2022-08-05T23:18:22.914Z,26.60
2022-08-05T23:21:10.287Z,26.60
2022-08-05T23:23:55.853Z,26.70
2022-08-05T23:26:41.735Z,26.90
2022-08-05T23:29:30.141Z,27.10
2022-08-05T23:32:22.760Z,27.40
2022-08-05T23:35:09.466Z,27.70
2022-08-05T23:37:55.312Z,27.80
2022-08-05T23:40:42.274Z,27.60
2022-08-05T23:44:02.865Z,28.00
2022-08-05T23:46:41.187Z,28.40
2022-08-05T23:49:36.037Z,28.60
2022-08-05T23:52:32.372Z,28.60
2022-08-05T23:55:22.224Z,28.20
2022-08-05T23:58:31.695Z,28.50
